Kakushu Maru — JG5688 — position and weather

sailwx.info

Track history (hours):
 
Tides and Currents Weather Stations Pressure Air Temp Water Temp Dewpoint Dewpoint Depression Visibility Wind Speed Wind Dir Waves Ship Positions

Kakushu Maru

Last reported at 2016-Sep-23 19:32 UTC. Time now 2016-Sep-29 11:53 UTC.
Position N 34°21' E 135°01'.

Length 105 m; draft 4.7 m.

Type: Tanker. MMSI: 431101016.

Date/timePositionNaut miles runAvg speedWind from/ knotsBaromVisibWave heightAir tempDewpointWater temp
2016-Sep-23 19:32N 34°21' E 135°01'  
2016-Sep-21 03:32N 35°06' E 139°41'1313.1
2016-Sep-21 02:33N 35°18' E 139°44'18 2.0
2016-Sep-20 17:33N 35°35' E 139°52'0 0.0
2016-Sep-20 14:31N 35°35' E 139°52'0 0.0
2016-Sep-20 13:33N 35°35' E 139°52'0 0.0
2016-Sep-20 10:33N 35°35' E 139°52'0 0.0
2016-Sep-20 08:27N 35°35' E 139°52'0 0.0
2016-Sep-20 07:30N 35°35' E 139°52'0 0.1
2016-Sep-20 06:33N 35°35' E 139°52'0 0.0
2016-Sep-20 02:33N 35°35' E 139°52'0 0.0
2016-Sep-19 23:30N 35°35' E 139°52'0 0.0
2016-Sep-19 19:33N 35°35' E 139°52'0 0.0
2016-Sep-19 18:30N 35°35' E 139°52'0 0.0
2016-Sep-19 16:27N 35°35' E 139°52'0 0.0
2016-Sep-19 14:30N 35°35' E 139°52'0 0.0
2016-Sep-19 13:30N 35°35' E 139°52'0 0.0
2016-Sep-19 12:33N 35°35' E 139°52'0 0.0
2016-Sep-19 11:33N 35°35' E 139°52'0 0.0
2016-Sep-19 09:33N 35°35' E 139°52'0 0.0
2016-Sep-19 07:33N 35°35' E 139°52'0 0.0
2016-Sep-19 06:33N 35°35' E 139°52'15 4.9
2016-Sep-19 03:33N 35°24' E 139°40'0 0.0
2016-Sep-19 02:33N 35°24' E 139°40'0 0.0
2016-Sep-19 00:33N 35°24' E 139°40'5 0.9
2016-Sep-18 19:31N 35°22' E 139°44'24510.1
2016-Sep-17 19:16N 34°12' E 134°59'25 0.6
2016-Sep-16 03:33N 34°37' E 135°03'1212.0
2016-Sep-16 02:33N 34°25' E 135°02'2713.5
2016-Sep-16 00:33N 33°58' E 135°00'24 0.7
2016-Sep-14 13:32N 34°21' E 134°59'1414.0
2016-Sep-14 12:33N 34°35' E 135°03'  
Track history (hours):
 
Tides and Currents Weather Stations Pressure Air Temp Water Temp Dewpoint Dewpoint Depression Visibility Wind Speed Wind Dir Waves Ship Positions

Kakushu Maru

Last reported at 2016-Sep-23 19:32 UTC. Time now 2016-Sep-29 11:53 UTC.
Position N 34°21' E 135°01'.

Length 105 m; draft 4.7 m.

Type: Tanker. MMSI: 431101016.

Date/timePositionNaut miles runAvg speedWind from/ knotsBaromVisibWave heightAir tempDewpointWater temp
2016-Sep-23 19:32N 34°21' E 135°01'  
2016-Sep-21 03:32N 35°06' E 139°41'1313.1
2016-Sep-21 02:33N 35°18' E 139°44'18 2.0
2016-Sep-20 17:33N 35°35' E 139°52'0 0.0
2016-Sep-20 14:31N 35°35' E 139°52'0 0.0
2016-Sep-20 13:33N 35°35' E 139°52'0 0.0
2016-Sep-20 10:33N 35°35' E 139°52'0 0.0
2016-Sep-20 08:27N 35°35' E 139°52'0 0.0
2016-Sep-20 07:30N 35°35' E 139°52'0 0.1
2016-Sep-20 06:33N 35°35' E 139°52'0 0.0
2016-Sep-20 02:33N 35°35' E 139°52'0 0.0
2016-Sep-19 23:30N 35°35' E 139°52'0 0.0
2016-Sep-19 19:33N 35°35' E 139°52'0 0.0
2016-Sep-19 18:30N 35°35' E 139°52'0 0.0
2016-Sep-19 16:27N 35°35' E 139°52'0 0.0
2016-Sep-19 14:30N 35°35' E 139°52'0 0.0
2016-Sep-19 13:30N 35°35' E 139°52'0 0.0
2016-Sep-19 12:33N 35°35' E 139°52'0 0.0
2016-Sep-19 11:33N 35°35' E 139°52'0 0.0
2016-Sep-19 09:33N 35°35' E 139°52'0 0.0
2016-Sep-19 07:33N 35°35' E 139°52'0 0.0
2016-Sep-19 06:33N 35°35' E 139°52'15 4.9
2016-Sep-19 03:33N 35°24' E 139°40'0 0.0
2016-Sep-19 02:33N 35°24' E 139°40'0 0.0
2016-Sep-19 00:33N 35°24' E 139°40'5 0.9
2016-Sep-18 19:31N 35°22' E 139°44'24510.1
2016-Sep-17 19:16N 34°12' E 134°59'25 0.6
2016-Sep-16 03:33N 34°37' E 135°03'1212.0
2016-Sep-16 02:33N 34°25' E 135°02'2713.5
2016-Sep-16 00:33N 33°58' E 135°00'24 0.7
2016-Sep-14 13:32N 34°21' E 134°59'1414.0
2016-Sep-14 12:33N 34°35' E 135°03'  

Dump ship's entire track history